Time;durP1;ratioP1;P1;durP2;ratioP2;P2;SDS_P1;SDS_P2;PMS_P1;PMS_P2;Temp;Humidity;BMP_temperature;BMP_pressure;BME280_temperature;BME280_humidity;BME280_pressure;Samples;Min_cycle;Max_cycle;Signal;HPM_P1;HPM_P2
2021/06/26 00:02:04;;;;;;;4.00;2.40;;;;;;;18.89;85.79;101349.63;5093011;28;20492;-71
2021/06/26 00:04:32;;;;;;;2.93;2.50;;;;;;;18.83;86.07;101346.31;5092487;28;20542;-72
2021/06/26 00:06:58;;;;;;;5.03;2.70;;;;;;;18.76;87.27;101354.28;5093046;28;20447;-72
2021/06/26 00:09:25;;;;;;;2.30;2.10;;;;;;;18.68;86.62;101346.88;5093216;28;20443;-72
2021/06/26 00:11:52;;;;;;;3.40;2.20;;;;;;;18.63;87.04;101347.09;5092717;28;20472;-72
2021/06/26 00:14:18;;;;;;;3.03;2.13;;;;;;;18.55;87.43;101348.81;5093046;28;20435;-72
2021/06/26 00:16:44;;;;;;;2.83;2.30;;;;;;;18.50;88.20;101351.72;5093040;28;20441;-71
2021/06/26 00:19:11;;;;;;;7.53;3.27;;;;;;;18.41;88.53;101345.50;5093044;28;20440;-71
2021/06/26 00:21:39;;;;;;;3.90;2.80;;;;;;;18.35;88.47;101350.41;5092793;28;20488;-71
2021/06/26 00:24:06;;;;;;;2.67;2.47;;;;;;;18.28;88.49;101355.66;5092998;28;20466;-72
2021/06/26 00:26:33;;;;;;;3.23;2.63;;;;;;;18.21;88.33;101355.38;5102330;28;20444;-72
2021/06/26 00:28:59;;;;;;;5.03;2.60;;;;;;;18.11;88.45;101353.03;5092671;28;20791;-72
2021/06/26 00:31:26;;;;;;;1.90;1.80;;;;;;;18.04;89.35;101358.22;5092558;28;20985;-71
2021/06/26 00:33:52;;;;;;;3.20;2.20;;;;;;;17.93;89.67;101352.34;5092841;28;20443;-71
2021/06/26 00:36:18;;;;;;;4.60;2.50;;;;;;;17.88;89.54;101347.03;5092883;28;20440;-71
2021/06/26 00:38:46;;;;;;;4.20;2.37;;;;;;;17.79;89.92;101341.59;5092882;28;20471;-71
2021/06/26 00:41:13;;;;;;;3.13;2.27;;;;;;;17.70;90.01;101343.53;5092685;28;20531;-71
2021/06/26 00:43:39;;;;;;;2.57;2.20;;;;;;;17.57;90.74;101348.13;5092869;28;20437;-71
2021/06/26 00:46:06;;;;;;;3.33;2.23;;;;;;;17.47;90.96;101342.22;5092775;28;20448;-71
2021/06/26 00:48:32;;;;;;;2.93;1.83;;;;;;;17.45;90.59;101344.50;5092741;28;20444;-71
2021/06/26 00:50:59;;;;;;;3.90;2.53;;;;;;;17.38;90.77;101348.53;5092675;28;20452;-71
2021/06/26 00:53:25;;;;;;;2.37;1.77;;;;;;;17.39;91.04;101349.31;5093142;28;20440;-71
2021/06/26 00:55:53;;;;;;;2.53;2.10;;;;;;;17.36;90.85;101350.00;5096110;28;20941;-71
2021/06/26 00:58:21;;;;;;;2.30;1.83;;;;;;;17.32;90.95;101349.84;5096041;28;20944;-71
2021/06/26 01:00:47;;;;;;;3.27;2.47;;;;;;;17.23;91.19;101346.34;5095618;28;20459;-71
2021/06/26 01:03:14;;;;;;;3.20;2.30;;;;;;;17.12;91.39;101347.81;5095869;28;21008;-71
2021/06/26 01:05:40;;;;;;;3.30;2.13;;;;;;;17.00;91.79;101347.66;5096083;28;20440;-71
2021/06/26 01:08:07;;;;;;;2.80;1.73;;;;;;;16.81;92.61;101350.78;5096158;28;20442;-71
2021/06/26 01:10:33;;;;;;;2.83;2.60;;;;;;;16.69;93.04;101356.88;5096054;28;20436;-71
2021/06/26 01:13:01;;;;;;;2.43;1.80;;;;;;;16.62;93.32;101348.34;5095618;28;20472;-71
2021/06/26 01:15:28;;;;;;;3.13;2.40;;;;;;;16.76;92.10;101359.16;5095969;28;20452;-71
2021/06/26 01:17:54;;;;;;;5.90;2.70;;;;;;;16.77;91.59;101361.56;5095626;28;20945;-71
2021/06/26 01:20:21;;;;;;;4.00;1.97;;;;;;;16.77;91.98;101355.28;5095922;28;20446;-71
2021/06/26 01:22:54;;;;;;;2.37;1.90;;;;;;;16.72;92.07;101363.63;5095352;28;20484;-71
2021/06/26 01:25:22;;;;;;;2.17;1.50;;;;;;;16.63;92.50;101355.44;5095824;28;20444;-71
2021/06/26 01:27:49;;;;;;;2.77;1.70;;;;;;;16.60;92.75;101358.81;5095755;28;20432;-71
2021/06/26 01:30:17;;;;;;;5.53;2.30;;;;;;;16.46;93.63;101349.97;5095417;28;20451;-71
2021/06/26 01:32:44;;;;;;;4.07;2.20;;;;;;;16.48;93.29;101347.72;5095645;28;20578;-71
2021/06/26 01:35:11;;;;;;;5.33;3.20;;;;;;;16.51;93.12;101347.06;5095507;28;20444;-71
2021/06/26 01:37:38;;;;;;;4.60;2.77;;;;;;;16.32;93.46;101353.66;5095571;28;20813;-71
2021/06/26 01:40:07;;;;;;;1.87;1.70;;;;;;;16.21;94.33;101351.56;5095518;28;20452;-71
2021/06/26 01:42:34;;;;;;;3.23;2.00;;;;;;;16.33;93.96;101351.72;5094934;28;20868;-71
2021/06/26 01:45:01;;;;;;;3.30;2.80;;;;;;;16.33;93.35;101352.53;5095460;28;20444;-71
2021/06/26 01:47:27;;;;;;;2.33;1.80;;;;;;;16.22;94.14;101355.91;5095396;28;20459;-70
2021/06/26 01:49:54;;;;;;;2.60;2.00;;;;;;;16.17;93.71;101354.13;5095363;28;20436;-70
2021/06/26 01:52:20;;;;;;;4.13;2.50;;;;;;;16.18;89.51;101357.69;5094896;28;20969;-70
2021/06/26 01:54:47;;;;;;;3.60;2.57;;;;;;;16.05;89.40;101362.94;5095251;28;20443;-70
2021/06/26 01:57:14;;;;;;;2.33;2.00;;;;;;;15.95;89.15;101357.00;5095154;28;20444;-71
2021/06/26 01:59:41;;;;;;;2.10;1.63;;;;;;;15.91;88.70;101366.94;5094462;28;20464;-70
2021/06/26 02:02:08;;;;;;;3.77;2.93;;;;;;;15.85;90.51;101369.03;5094569;28;21031;-71
2021/06/26 02:04:34;;;;;;;2.97;1.93;;;;;;;15.82;91.89;101364.19;5094651;28;20444;-70
2021/06/26 02:07:01;;;;;;;3.77;2.23;;;;;;;15.74;93.21;101367.69;5094282;28;20447;-71
2021/06/26 02:09:27;;;;;;;2.37;1.93;;;;;;;15.67;94.70;101364.59;5094547;28;20832;-71
2021/06/26 02:11:54;;;;;;;2.87;2.20;;;;;;;15.72;94.00;101359.84;5094650;28;20476;-71
2021/06/26 02:14:22;;;;;;;4.27;2.20;;;;;;;15.64;94.50;101358.69;5094859;28;20463;-71
2021/06/26 02:16:48;;;;;;;3.00;2.40;;;;;;;15.53;94.97;101359.22;5094791;28;20444;-71
2021/06/26 02:19:15;;;;;;;3.43;2.50;;;;;;;15.56;92.06;101353.16;5094950;28;20445;-70
2021/06/26 02:21:41;;;;;;;2.70;2.10;;;;;;;15.45;90.85;101354.53;5094612;28;20471;-71
2021/06/26 02:24:09;;;;;;;3.10;2.40;;;;;;;15.37;90.57;101358.84;5094825;28;20480;-71
2021/06/26 02:26:35;;;;;;;2.87;2.27;;;;;;;15.32;89.70;101362.53;5094581;28;20436;-71
2021/06/26 02:29:02;;;;;;;2.50;2.00;;;;;;;15.30;89.54;101364.75;5094617;28;20436;-71
2021/06/26 02:31:29;;;;;;;2.57;1.80;;;;;;;15.31;91.27;101363.63;5094481;28;20460;-71
2021/06/26 02:33:56;;;;;;;2.80;2.17;;;;;;;15.22;92.90;101373.69;5094448;28;20439;-71
2021/06/26 02:36:22;;;;;;;4.67;3.30;;;;;;;15.26;93.82;101379.34;5094440;28;20542;-70
2021/06/26 02:38:49;;;;;;;2.57;1.87;;;;;;;15.23;94.11;101377.22;5094048;28;20964;-70
2021/06/26 02:41:15;;;;;;;3.43;2.30;;;;;;;15.25;94.79;101373.06;5094106;28;20472;-71
2021/06/26 02:43:42;;;;;;;3.20;2.70;;;;;;;15.20;95.50;101378.69;5094207;28;20491;-71
2021/06/26 02:46:08;;;;;;;3.97;2.63;;;;;;;15.22;95.47;101373.69;5094219;28;20436;-71
2021/06/26 02:48:36;;;;;;;2.20;1.60;;;;;;;15.14;95.24;101371.75;5094180;28;20451;-71
2021/06/26 02:51:02;;;;;;;3.20;2.00;;;;;;;15.13;95.88;101375.56;5094108;28;20444;-70
2021/06/26 02:53:29;;;;;;;3.93;2.37;;;;;;;15.10;95.78;101370.75;5094130;28;20436;-71
2021/06/26 02:55:56;;;;;;;2.80;2.20;;;;;;;15.15;95.71;101373.34;5094114;28;20448;-71
2021/06/26 02:58:23;;;;;;;2.90;1.73;;;;;;;15.10;95.99;101376.22;5094044;28;20444;-71
2021/06/26 03:00:50;;;;;;;3.57;2.73;;;;;;;15.09;96.01;101382.78;5093603;28;21003;-71
2021/06/26 03:03:16;;;;;;;2.30;1.70;;;;;;;15.14;96.16;101388.13;5093816;28;20491;-71
2021/06/26 03:05:44;;;;;;;2.10;1.57;;;;;;;15.08;95.83;101378.44;5093877;28;20442;-71
2021/06/26 03:08:11;;;;;;;2.50;2.00;;;;;;;15.07;95.83;101380.38;5093845;28;20440;-71
2021/06/26 03:10:37;;;;;;;2.20;1.93;;;;;;;15.08;95.87;101389.34;5093400;28;20956;-71
2021/06/26 03:13:04;;;;;;;3.67;1.97;;;;;;;15.15;95.25;101389.72;5093771;28;20463;-70
2021/06/26 03:15:32;;;;;;;3.40;2.20;;;;;;;15.21;92.73;101387.66;5093413;28;20957;-68
2021/06/26 03:17:59;;;;;;;3.87;2.70;;;;;;;15.20;92.90;101391.53;5100132;28;20548;-70
2021/06/26 03:20:25;;;;;;;4.10;1.77;;;;;;;15.12;92.20;101399.34;5093710;28;20439;-71
2021/06/26 03:22:53;;;;;;;4.20;2.00;;;;;;;15.03;93.05;101389.47;5093200;28;20480;-70
2021/06/26 03:25:19;;;;;;;3.70;2.57;;;;;;;15.03;92.19;101387.56;5093579;28;20451;-70
2021/06/26 03:27:46;;;;;;;3.50;2.57;;;;;;;14.99;90.91;101392.03;5093552;28;20444;-70
2021/06/26 03:30:13;;;;;;;3.40;2.20;;;;;;;15.02;91.75;101402.31;5093512;28;20444;-71
2021/06/26 03:32:40;;;;;;;4.80;2.80;;;;;;;15.02;92.91;101402.31;5093397;28;20453;-70
2021/06/26 03:35:08;;;;;;;2.10;1.90;;;;;;;15.06;93.86;101403.31;5093472;28;20451;-70
2021/06/26 03:37:34;;;;;;;3.00;2.37;;;;;;;15.13;94.55;101400.94;5093481;28;20440;-70
2021/06/26 03:40:02;;;;;;;2.77;1.93;;;;;;;15.17;95.48;101405.78;5093626;28;20440;-70
2021/06/26 03:42:28;;;;;;;3.10;1.70;;;;;;;15.25;95.66;101405.84;5093254;28;20533;-70
2021/06/26 03:44:55;;;;;;;3.47;2.30;;;;;;;15.32;95.62;101411.66;5093326;28;20440;-70
2021/06/26 03:47:21;;;;;;;4.10;2.30;;;;;;;15.28;95.76;101404.41;5093333;28;20816;-70
2021/06/26 03:49:48;;;;;;;4.40;2.43;;;;;;;15.33;96.07;101407.81;5093288;28;20447;-70
2021/06/26 03:52:14;;;;;;;5.03;3.07;;;;;;;15.39;95.99;101403.00;5093193;28;20460;-70
2021/06/26 03:54:40;;;;;;;3.40;1.90;;;;;;;15.45;95.60;101409.97;5093469;28;20440;-71
2021/06/26 03:57:08;;;;;;;5.40;3.13;;;;;;;15.50;95.63;101409.03;5092941;28;20972;-72
2021/06/26 03:59:35;;;;;;;5.60;2.70;;;;;;;15.50;96.83;101404.38;5093215;28;20494;-72
2021/06/26 04:02:06;;;;;;;5.60;3.23;;;;;;;15.58;96.79;101419.16;5093076;28;20857;-71
2021/06/26 04:04:33;;;;;;;4.20;2.97;;;;;;;15.70;96.98;101416.69;5093144;28;20817;-71
2021/06/26 04:06:59;;;;;;;5.07;3.13;;;;;;;15.86;96.29;101414.34;5093126;28;20805;-71
2021/06/26 04:09:25;;;;;;;3.00;2.30;;;;;;;15.85;96.09;101416.28;5093099;28;20451;-71
2021/06/26 04:11:52;;;;;;;7.80;3.10;;;;;;;15.95;96.12;101417.13;5092887;28;20483;-71
2021/06/26 04:14:20;;;;;;;3.53;2.60;;;;;;;16.10;96.11;101413.94;5093044;28;20452;-71
2021/06/26 04:16:46;;;;;;;7.03;3.03;;;;;;;16.16;96.61;101401.75;5093080;28;20444;-71
2021/06/26 04:19:13;;;;;;;4.13;2.47;;;;;;;16.28;95.93;101409.31;5092717;28;20929;-72
2021/06/26 04:21:40;;;;;;;3.87;2.80;;;;;;;16.35;94.48;101415.91;5093214;28;20452;-71
2021/06/26 04:24:06;;;;;;;3.33;2.50;;;;;;;16.42;92.74;101412.69;5092620;28;20992;-71
2021/06/26 04:26:33;;;;;;;3.20;2.83;;;;;;;16.46;91.63;101416.41;5092988;28;20444;-71
2021/06/26 04:28:59;;;;;;;2.80;2.17;;;;;;;16.57;91.12;101420.44;5094549;28;20440;-71
2021/06/26 04:31:27;;;;;;;4.20;2.37;;;;;;;16.63;91.16;101415.59;5097087;28;20460;-72
2021/06/26 04:33:54;;;;;;;3.30;2.50;;;;;;;16.77;92.04;101415.47;5096853;28;20443;-71
2021/06/26 04:36:20;;;;;;;7.77;3.27;;;;;;;16.88;92.93;101417.56;5096723;28;20447;-71
2021/06/26 04:38:47;;;;;;;4.23;2.47;;;;;;;16.96;93.64;101406.97;5096373;28;20929;-71
2021/06/26 04:41:13;;;;;;;4.10;2.90;;;;;;;17.04;94.50;101414.31;5096595;28;20460;-71
2021/06/26 04:43:40;;;;;;;3.80;2.83;;;;;;;17.13;94.48;101418.69;5096514;28;20487;-71
2021/06/26 04:46:09;;;;;;;3.80;2.57;;;;;;;17.22;95.11;101426.06;5096516;28;20444;-71
2021/06/26 04:48:38;;;;;;;4.37;3.17;;;;;;;17.24;94.96;101424.59;5096244;28;20442;-71
2021/06/26 04:51:04;;;;;;;3.80;2.70;;;;;;;17.33;94.67;101430.88;5096154;28;20933;-73
2021/06/26 04:53:32;;;;;;;2.47;2.00;;;;;;;17.43;94.51;101431.66;5096728;28;20440;-70
2021/06/26 04:55:58;;;;;;;2.50;2.30;;;;;;;17.53;94.48;101425.81;5096202;28;20933;-70
2021/06/26 04:58:25;;;;;;;2.83;2.10;;;;;;;17.62;94.30;101429.34;5096679;28;20432;-71
2021/06/26 05:00:54;;;;;;;3.90;2.87;;;;;;;17.74;94.09;101425.94;5096239;28;20451;-70
2021/06/26 05:03:22;;;;;;;4.10;3.20;;;;;;;17.81;93.96;101432.53;5096136;28;20542;-70
2021/06/26 05:05:51;;;;;;;3.80;2.63;;;;;;;17.90;94.44;101436.03;5096193;28;20436;-69
2021/06/26 05:08:19;;;;;;;4.00;2.70;;;;;;;18.00;93.89;101439.53;5095814;28;20918;-69
2021/06/26 05:10:45;;;;;;;3.90;3.03;;;;;;;18.10;93.85;101441.88;5095757;28;20944;-70
2021/06/26 05:13:12;;;;;;;3.17;2.40;;;;;;;18.15;93.82;101449.94;5098726;28;20467;-69
2021/06/26 05:15:40;;;;;;;6.60;3.40;;;;;;;18.23;93.07;101446.31;5099803;28;20440;-69
2021/06/26 05:18:07;;;;;;;2.87;2.10;;;;;;;18.30;92.53;101446.63;5095962;28;20444;-70
2021/06/26 05:20:33;;;;;;;2.90;2.33;;;;;;;18.31;91.98;101455.66;5095927;28;20544;-70
2021/06/26 05:23:09;;;;;;;3.83;2.50;;;;;;;18.31;91.63;101453.69;5095683;28;20503;-70
2021/06/26 05:25:36;;;;;;;3.47;2.60;;;;;;;18.38;91.54;101447.72;5095736;28;20420;-70
2021/06/26 05:28:03;;;;;;;3.60;2.70;;;;;;;18.40;91.09;101459.13;5095515;28;20952;-70
2021/06/26 05:30:29;;;;;;;2.77;2.00;;;;;;;18.45;91.18;101452.66;5095867;28;20968;-70
2021/06/26 05:32:55;;;;;;;13.43;3.43;;;;;;;18.51;90.92;101448.59;5095434;28;20830;-70
2021/06/26 05:35:22;;;;;;;5.73;3.60;;;;;;;18.45;91.41;101456.19;5095668;28;20437;-70
2021/06/26 05:37:48;;;;;;;5.20;3.07;;;;;;;18.56;90.88;101462.91;5095544;28;20448;-70
2021/06/26 05:40:16;;;;;;;4.10;2.10;;;;;;;18.66;90.80;101453.47;5095371;28;20440;-71
2021/06/26 05:42:43;;;;;;;5.17;2.90;;;;;;;18.71;90.55;101458.78;5095426;28;20471;-70
2021/06/26 05:45:10;;;;;;;4.90;3.57;;;;;;;18.72;90.79;101457.66;5095389;28;20487;-70
2021/06/26 05:47:36;;;;;;;7.40;3.70;;;;;;;18.84;89.90;101463.22;5095413;28;20448;-70
2021/06/26 05:50:03;;;;;;;3.17;2.70;;;;;;;18.92;90.03;101458.00;5096971;28;20447;-71
2021/06/26 05:52:30;;;;;;;4.23;3.27;;;;;;;18.93;89.63;101454.91;5095240;28;20488;-71
2021/06/26 05:54:56;;;;;;;4.40;3.27;;;;;;;19.00;89.43;101462.59;5095290;28;20824;-71
2021/06/26 05:57:24;;;;;;;3.83;3.00;;;;;;;19.09;89.42;101460.59;5094854;28;20816;-70
2021/06/26 05:59:50;;;;;;;4.13;2.43;;;;;;;19.12;89.40;101457.97;5094903;28;20996;-71
2021/06/26 06:02:17;;;;;;;5.77;3.57;;;;;;;19.10;88.75;101456.69;5095014;28;20465;-70
2021/06/26 06:04:43;;;;;;;3.63;2.63;;;;;;;19.11;88.25;101450.84;5094971;28;20476;-70
2021/06/26 06:07:10;;;;;;;3.63;2.50;;;;;;;19.18;88.53;101458.56;5095064;28;20457;-71
2021/06/26 06:09:37;;;;;;;3.27;2.40;;;;;;;19.22;88.83;101458.69;5095231;28;20428;-71
2021/06/26 06:12:05;;;;;;;3.17;2.40;;;;;;;19.23;89.66;101460.28;5094470;28;20988;-70
2021/06/26 06:14:32;;;;;;;2.67;2.37;;;;;;;19.23;89.71;101452.06;5094857;28;20445;-71
2021/06/26 06:16:59;;;;;;;4.17;2.97;;;;;;;19.17;88.85;101456.97;5094861;28;20451;-70
2021/06/26 06:19:25;;;;;;;4.67;2.77;;;;;;;19.12;87.44;101449.72;5094817;28;20448;-71
2021/06/26 06:21:52;;;;;;;3.83;2.90;;;;;;;19.13;86.38;101456.81;5094740;28;20471;-70
2021/06/26 06:24:18;;;;;;;5.53;2.60;;;;;;;19.18;85.90;101449.53;5094647;28;20484;-70
2021/06/26 06:26:45;;;;;;;2.50;2.07;;;;;;;19.19;86.41;101462.91;5094228;28;20819;-70
2021/06/26 06:29:11;;;;;;;4.47;2.90;;;;;;;19.24;86.58;101454.44;5094814;28;20437;-70
2021/06/26 06:31:39;;;;;;;3.77;2.73;;;;;;;19.27;86.89;101464.78;5094335;28;20469;-70
2021/06/26 06:34:05;;;;;;;4.80;2.47;;;;;;;19.21;87.40;101462.56;5094396;28;20436;-70
2021/06/26 06:36:32;;;;;;;5.07;2.83;;;;;;;19.32;86.65;101464.56;5094414;28;20436;-70
2021/06/26 06:38:58;;;;;;;3.30;2.67;;;;;;;19.33;85.40;101457.09;5093965;28;20804;-70
2021/06/26 06:41:25;;;;;;;4.17;2.20;;;;;;;19.46;84.33;101460.69;5094134;28;20457;-70
2021/06/26 06:43:51;;;;;;;3.20;2.50;;;;;;;19.55;84.62;101466.91;5093933;28;20856;-70
2021/06/26 06:46:18;;;;;;;2.40;1.93;;;;;;;19.59;84.66;101459.59;5094246;28;20444;-70
2021/06/26 06:48:45;;;;;;;2.50;2.20;;;;;;;19.69;85.14;101469.34;5094232;28;20456;-70
2021/06/26 06:51:12;;;;;;;1.80;1.70;;;;;;;19.75;83.39;101465.25;5093655;28;20464;-70
2021/06/26 06:53:38;;;;;;;3.40;2.20;;;;;;;19.88;82.63;101466.88;5094193;28;20536;-70
2021/06/26 06:56:05;;;;;;;6.10;2.20;;;;;;;19.99;81.44;101464.47;5093856;28;20455;-69
2021/06/26 06:58:31;;;;;;;3.57;2.23;;;;;;;20.10;79.64;101465.63;5093995;28;20440;-68
2021/06/26 07:00:58;;;;;;;2.87;2.53;;;;;;;20.19;80.30;101463.56;5093948;28;20447;-69
2021/06/26 07:03:24;;;;;;;7.30;2.20;;;;;;;20.26;80.14;101466.53;5094112;28;20454;-69
2021/06/26 07:05:52;;;;;;;5.50;2.50;;;;;;;20.40;79.18;101464.22;5093866;28;20455;-72
2021/06/26 07:08:18;;;;;;;3.83;2.33;;;;;;;20.50;79.25;101474.00;5093837;28;20444;-72
2021/06/26 07:10:45;;;;;;;2.17;1.60;;;;;;;20.55;77.51;101470.19;5099210;28;20413;-72
2021/06/26 07:13:11;;;;;;;4.30;2.17;;;;;;;20.60;76.86;101467.19;5095344;28;20456;-73
2021/06/26 07:15:38;;;;;;;3.40;1.83;;;;;;;20.64;73.56;101473.63;5093751;28;20436;-72
2021/06/26 07:18:05;;;;;;;3.23;2.17;;;;;;;20.74;72.82;101467.63;5093779;28;20440;-71
2021/06/26 07:20:31;;;;;;;3.33;2.33;;;;;;;20.83;72.09;101462.78;5093666;28;20451;-72
2021/06/26 07:22:59;;;;;;;4.20;2.27;;;;;;;20.94;70.22;101454.84;5093594;28;20448;-70
2021/06/26 07:25:26;;;;;;;4.20;2.63;;;;;;;21.08;69.63;101459.94;5093770;28;20491;-70
2021/06/26 07:27:52;;;;;;;2.80;2.17;;;;;;;21.15;68.30;101457.38;5093580;28;20510;-70
2021/06/26 07:30:19;;;;;;;3.93;2.23;;;;;;;21.21;70.58;101460.69;5093480;28;20445;-70
2021/06/26 07:32:46;;;;;;;3.87;2.30;;;;;;;21.23;69.46;101458.38;5093434;28;20460;-70
2021/06/26 07:35:13;;;;;;;4.57;2.90;;;;;;;21.18;66.93;101459.44;5093482;28;20509;-71
2021/06/26 07:37:39;;;;;;;5.23;3.00;;;;;;;21.23;66.51;101453.66;5093334;28;20443;-70
2021/06/26 07:40:09;;;;;;;3.43;2.10;;;;;;;21.32;68.31;101453.53;5093002;28;20451;-70
2021/06/26 07:42:35;;;;;;;4.73;2.40;;;;;;;21.22;71.46;101463.09;5093232;28;20479;-70
2021/06/26 07:45:02;;;;;;;3.80;2.40;;;;;;;21.02;73.65;101450.31;5093407;28;20484;-70
2021/06/26 07:47:29;;;;;;;3.03;1.83;;;;;;;20.87;76.51;101449.91;5093239;28;20445;-70
2021/06/26 07:49:55;;;;;;;2.70;2.40;;;;;;;20.83;80.14;101449.00;5093188;28;20441;-70
2021/06/26 07:52:22;;;;;;;4.97;2.90;;;;;;;20.76;80.38;101435.03;5092779;28;20471;-70
2021/06/26 07:54:48;;;;;;;2.80;2.27;;;;;;;20.58;73.69;101433.69;5093173;28;20437;-70
2021/06/26 07:57:16;;;;;;;6.10;2.60;;;;;;;20.66;71.98;101430.81;5093013;28;20443;-71
2021/06/26 07:59:42;;;;;;;3.13;2.77;;;;;;;20.66;74.46;101425.28;5093148;28;20444;-71
2021/06/26 08:02:09;;;;;;;4.17;2.70;;;;;;;20.78;67.62;101432.72;5093247;28;20469;-70
2021/06/26 08:04:35;;;;;;;3.30;2.70;;;;;;;20.90;69.90;101435.44;5095536;28;20487;-70
2021/06/26 08:07:02;;;;;;;4.10;3.00;;;;;;;20.90;70.15;101429.94;5097294;28;20443;-70
2021/06/26 08:09:28;;;;;;;2.63;2.43;;;;;;;20.97;75.01;101425.75;5097280;28;20436;-71
2021/06/26 08:11:55;;;;;;;2.70;2.00;;;;;;;20.93;73.72;101428.41;5096941;28;20491;-70
2021/06/26 08:14:23;;;;;;;5.43;2.30;;;;;;;20.97;66.46;101425.75;5097190;28;20444;-70
2021/06/26 08:16:49;;;;;;;3.60;2.50;;;;;;;21.10;69.24;101433.63;5097140;28;20429;-70
2021/06/26 08:19:16;;;;;;;2.70;2.20;;;;;;;21.19;68.01;101430.72;5097333;28;20436;-70
2021/06/26 08:21:45;;;;;;;3.67;2.30;;;;;;;21.10;72.39;101432.81;5096910;28;20464;-69
2021/06/26 08:24:11;;;;;;;3.07;2.23;;;;;;;20.87;75.48;101424.31;5096597;28;20479;-68
2021/06/26 08:26:38;;;;;;;3.87;2.60;;;;;;;20.76;75.97;101429.53;5096910;28;20448;-69
2021/06/26 08:29:04;;;;;;;3.63;2.53;;;;;;;20.68;78.07;101424.16;5096585;28;20436;-69
2021/06/26 08:31:32;;;;;;;3.10;2.53;;;;;;;20.62;78.08;101418.09;5096794;28;20471;-69
2021/06/26 08:33:59;;;;;;;2.40;1.90;;;;;;;20.68;76.30;101418.66;5096809;28;20440;-70
2021/06/26 08:36:25;;;;;;;4.37;2.30;;;;;;;20.89;64.79;101420.06;5096765;28;20455;-70
2021/06/26 08:38:51;;;;;;;3.10;2.47;;;;;;;21.35;59.14;101423.31;5096655;28;20455;-70
2021/06/26 08:41:18;;;;;;;4.07;2.60;;;;;;;21.79;59.53;101419.69;5096589;28;20460;-70
2021/06/26 08:43:45;;;;;;;4.13;2.20;;;;;;;22.16;63.86;101422.94;5096572;28;20469;-70
2021/06/26 08:46:12;;;;;;;3.43;2.43;;;;;;;22.40;63.98;101421.88;5096591;28;20443;-70
2021/06/26 08:48:41;;;;;;;8.50;2.40;;;;;;;22.53;59.91;101426.13;5096765;28;20436;-71
2021/06/26 08:51:07;;;;;;;3.63;2.40;;;;;;;22.55;55.92;101423.00;5096137;28;20827;-74
2021/06/26 08:53:36;;;;;;;1.80;1.63;;;;;;;22.59;56.54;101426.66;5096106;28;20929;-71
2021/06/26 08:56:02;;;;;;;4.00;2.40;;;;;;;22.45;55.03;101429.13;5096400;28;20436;-71
2021/06/26 08:58:29;;;;;;;2.60;2.10;;;;;;;22.52;58.64;101432.81;5096348;28;20440;-71
2021/06/26 09:00:55;;;;;;;3.97;1.97;;;;;;;22.38;57.21;101429.75;5095895;28;20447;-71
2021/06/26 09:03:23;;;;;;;3.10;1.90;;;;;;;22.31;56.89;101435.94;5096216;28;20439;-70
2021/06/26 09:05:51;;;;;;;2.77;2.40;;;;;;;22.24;57.64;101430.22;5095826;28;21008;-71
2021/06/26 09:08:20;;;;;;;1.60;1.50;;;;;;;22.22;57.88;101438.06;5096217;28;20799;-71
2021/06/26 09:10:49;;;;;;;3.23;2.47;;;;;;;22.18;58.75;101442.72;5102715;28;20449;-71
2021/06/26 09:13:20;;;;;;;3.30;1.80;;;;;;;22.09;60.93;101445.63;5095730;28;20486;-71
2021/06/26 09:15:47;;;;;;;2.17;1.87;;;;;;;21.98;57.96;101446.53;5095168;28;20804;-71
2021/06/26 09:18:16;;;;;;;2.83;2.30;;;;;;;21.99;61.99;101439.84;5095942;28;20441;-71
2021/06/26 09:20:46;;;;;;;2.93;1.97;;;;;;;21.96;64.74;101435.03;5095999;28;20436;-71
2021/06/26 09:23:30;;;;;;;2.83;2.30;;;;;;;22.05;65.79;101427.41;5095824;28;20518;-71
2021/06/26 09:26:07;;;;;;;3.70;2.57;;;;;;;22.20;64.53;101425.78;5095753;28;20460;-71
2021/06/26 09:28:34;;;;;;;4.10;2.40;;;;;;;22.32;62.97;101420.16;5095820;28;20440;-71
2021/06/26 09:31:01;;;;;;;4.13;2.73;;;;;;;22.51;63.48;101419.38;5095658;28;20453;-71
2021/06/26 09:33:28;;;;;;;2.90;2.00;;;;;;;22.65;61.01;101419.66;5095598;28;20524;-70
2021/06/26 09:36:07;;;;;;;2.83;2.53;;;;;;;22.84;59.95;101414.16;5095258;28;20934;-71
2021/06/26 09:38:55;;;;;;;2.93;2.20;;;;;;;22.95;58.82;101417.16;5095527;28;20437;-71
2021/06/26 09:41:22;;;;;;;2.30;2.10;;;;;;;23.09;57.25;101419.38;5095479;28;20861;-71
2021/06/26 09:43:49;;;;;;;2.63;2.40;;;;;;;23.12;51.91;101419.47;5095507;28;20444;-71
2021/06/26 09:46:17;;;;;;;2.90;2.00;;;;;;;23.38;53.41;101424.28;5095395;28;20480;-70
2021/06/26 09:48:52;;;;;;;2.20;2.00;;;;;;;23.59;46.51;101409.22;5095355;28;20444;-71
2021/06/26 09:51:23;;;;;;;2.20;2.00;;;;;;;23.78;45.78;101417.47;5095420;28;20551;-71
2021/06/26 09:53:57;;;;;;;4.23;2.20;;;;;;;23.89;46.75;101421.19;5069758;28;20438;-71
2021/06/26 09:56:36;;;;;;;1.80;1.60;;;;;;;23.81;42.01;101416.72;5055667;28;20407;-71
2021/06/26 09:59:03;;;;;;;1.30;1.20;;;;;;;23.62;43.46;101420.34;5070179;28;20503;-71
2021/06/26 10:01:32;;;;;;;1.87;1.47;;;;;;;23.40;41.77;101416.41;5054881;28;20451;-70
2021/06/26 10:04:00;;;;;;;1.80;1.20;;;;;;;23.26;41.53;101407.88;5066562;28;20445;-70
2021/06/26 10:06:27;;;;;;;1.90;1.57;;;;;;;23.25;42.81;101411.81;5075008;28;21024;-71
2021/06/26 10:08:55;;;;;;;1.80;1.60;;;;;;;23.10;41.45;101413.47;5074975;28;20449;-71
2021/06/26 10:11:22;;;;;;;2.00;1.57;;;;;;;23.01;41.04;101404.63;5074316;28;20469;-71
2021/06/26 10:13:49;;;;;;;1.67;1.17;;;;;;;23.08;41.55;101413.06;5074354;28;20450;-71
2021/06/26 10:16:16;;;;;;;2.13;1.70;;;;;;;23.24;42.62;101412.16;5074697;28;20446;-71
2021/06/26 10:18:44;;;;;;;1.80;1.37;;;;;;;23.39;42.88;101417.59;5074624;28;20433;-71
2021/06/26 10:21:11;;;;;;;1.50;1.40;;;;;;;23.58;39.99;101416.72;5074434;28;20464;-71
2021/06/26 10:23:37;;;;;;;2.57;1.03;;;;;;;23.77;37.25;101420.59;5074769;28;20449;-71
2021/06/26 10:26:05;;;;;;;1.43;1.33;;;;;;;23.91;39.26;101420.84;5073690;28;20499;-71
2021/06/26 10:28:32;;;;;;;1.10;1.00;;;;;;;24.08;39.65;101419.50;5074459;28;20437;-71
2021/06/26 10:31:01;;;;;;;1.60;1.10;;;;;;;24.25;39.11;101418.97;5074393;28;20437;-71
2021/06/26 10:33:30;;;;;;;1.30;1.20;;;;;;;24.54;37.74;101413.84;5074155;28;20480;-71
2021/06/26 10:35:58;;;;;;;1.97;1.60;;;;;;;24.64;37.84;101405.66;5074306;28;20444;-71
2021/06/26 10:38:25;;;;;;;1.30;1.20;;;;;;;24.84;38.25;101409.06;5073871;28;20828;-70
2021/06/26 10:40:54;;;;;;;1.50;1.23;;;;;;;24.94;39.93;101399.28;5073755;28;20854;-70
2021/06/26 10:43:24;;;;;;;1.17;1.03;;;;;;;25.08;41.15;101396.69;5074163;28;20468;-67
2021/06/26 10:45:53;;;;;;;1.40;1.30;;;;;;;25.33;39.96;101404.47;5074024;28;20489;-70
2021/06/26 10:48:22;;;;;;;1.20;1.10;;;;;;;25.47;37.50;101399.03;5074059;28;20449;-71
2021/06/26 10:50:51;;;;;;;1.13;1.00;;;;;;;25.57;37.74;101395.53;5073622;28;20852;-71
2021/06/26 10:53:29;;;;;;;2.00;1.17;;;;;;;25.68;38.35;101392.88;5073991;28;20782;-72
2021/06/26 10:56:01;;;;;;;1.50;1.40;;;;;;;25.70;37.80;101396.03;5073916;28;20414;-71
2021/06/26 10:58:30;;;;;;;1.90;1.30;;;;;;;25.64;38.36;101397.59;5073521;28;20438;-71
2021/06/26 11:00:57;;;;;;;9.03;1.20;;;;;;;25.44;38.42;101401.78;5073733;28;20446;-71
2021/06/26 11:03:28;;;;;;;1.30;1.20;;;;;;;25.30;38.52;101402.44;5074023;28;20437;-71
2021/06/26 11:05:54;;;;;;;2.20;0.90;;;;;;;25.31;39.14;101396.50;5073604;28;20499;-71
2021/06/26 11:08:22;;;;;;;1.77;1.30;;;;;;;25.21;40.14;101397.22;5080209;28;20942;-71
2021/06/26 11:10:53;;;;;;;1.97;1.60;;;;;;;25.00;38.50;101403.28;5073744;28;20449;-71
2021/06/26 11:13:21;;;;;;;1.20;0.97;;;;;;;24.98;39.04;101405.66;5073868;28;20422;-71
2021/06/26 11:15:49;;;;;;;1.30;1.20;;;;;;;25.03;41.30;101396.22;5073597;28;20438;-71
2021/06/26 11:18:16;;;;;;;1.20;1.00;;;;;;;25.12;42.53;101393.94;5073219;28;20931;-71
2021/06/26 11:20:43;;;;;;;1.43;1.33;;;;;;;25.26;42.73;101399.63;5073494;28;20491;-71
2021/06/26 11:23:14;;;;;;;1.20;1.10;;;;;;;26.12;41.51;101400.34;5073384;28;20464;-71
2021/06/26 11:25:41;;;;;;;1.17;1.07;;;;;;;27.69;39.07;101405.59;5073409;28;20470;-71